createdAt,value
2023-01-11T00:02:42.250Z,1005.1214388216699
2023-01-11T00:07:43.533Z,1005.252232645746
2023-01-11T00:12:39.794Z,1005.2749310113118
2023-01-11T00:17:40.024Z,1005.3215646141642
2023-01-11T00:22:40.276Z,1005.2347928053641
2023-01-11T00:27:35.557Z,1005.3383952698149
2023-01-11T00:32:31.811Z,1005.1863381126902
2023-01-11T00:37:28.080Z,1005.2302000247007
2023-01-11T00:42:24.349Z,1005.200841694323
2023-01-11T00:47:20.600Z,1005.2072829613146
2023-01-11T00:52:16.904Z,1005.1495776243398
2023-01-11T00:57:13.107Z,1005.1785859396471
2023-01-11T01:02:10.415Z,1005.2560774862287
2023-01-11T01:07:06.596Z,1005.2848415461076
2023-01-11T01:12:02.875Z,1005.4148628922278
2023-01-11T01:17:00.143Z,1005.4234140114091
2023-01-11T01:21:56.405Z,1005.4461096574362
2023-01-11T01:26:52.654Z,1005.4070702311441
2023-01-11T01:31:48.947Z,1005.3892929896049
2023-01-11T01:36:45.177Z,1005.512188902615
2023-01-11T01:41:42.428Z,1005.5769370812403
2023-01-11T01:46:38.745Z,1005.4416522195934
2023-01-11T01:51:39.927Z,1005.5592133111039
2023-01-11T02:01:44.474Z,1005.5769510239866
2023-01-11T02:06:40.721Z,1005.6171369535384
2023-01-11T02:11:37.934Z,1005.6573205716493
2023-01-11T02:16:34.210Z,1005.6752284771669
2023-01-11T02:21:43.406Z,1005.6486812860218
2023-01-11T02:26:54.666Z,1005.8509471496589
2023-01-11T02:32:01.873Z,1005.838823237217
2023-01-11T02:37:07.116Z,1005.9507025714261
2023-01-11T02:42:10.372Z,1005.7974960550771
2023-01-11T02:47:14.625Z,1005.8717964022256
2023-01-11T02:52:15.805Z,1005.9178521081117
2023-01-11T02:57:14.110Z,1005.7817836313262
2023-01-11T03:02:15.311Z,1005.7738433717827
2023-01-11T03:07:18.573Z,1005.7675650524789
2023-01-11T03:12:30.811Z,1005.7990127629283
2023-01-11T03:17:39.985Z,1005.8768396697659
2023-01-11T03:22:44.265Z,1005.9532095210484
2023-01-11T03:27:50.502Z,1006.0135372634012
2023-01-11T03:32:51.722Z,1006.0497671211517
2023-01-11T03:37:54.991Z,1006.1013881569932
2023-01-11T03:42:56.231Z,1006.0360358908546
2023-01-11T03:47:54.505Z,1006.0087174987674
2023-01-11T03:52:53.737Z,1006.0118955611875
2023-01-11T03:57:53.058Z,1006.0784818655623
2023-01-11T04:02:50.251Z,1006.110374453847
2023-01-11T04:07:46.500Z,1006.1927913078256
2023-01-11T04:12:45.768Z,1006.2206929697126
2023-01-11T04:17:42.048Z,1006.3033979912352
2023-01-11T04:22:38.276Z,1006.3664571363602
2023-01-11T04:27:34.531Z,1006.486927935822
2023-01-11T04:32:30.809Z,1006.5129344779575
2023-01-11T04:37:27.054Z,1006.6047044953647
2023-01-11T04:42:23.349Z,1006.6664897222704
2023-01-11T04:47:20.592Z,1006.7277837296238
2023-01-11T04:52:17.840Z,1006.81991202002
2023-01-11T04:57:15.122Z,1006.7456710767157
2023-01-11T05:02:11.395Z,1006.6498500409881
2023-01-11T05:07:07.621Z,1006.7565253042749
2023-01-11T05:12:03.861Z,1006.8014626715161
2023-01-11T05:17:00.178Z,1006.7891041928335
2023-01-11T05:21:57.373Z,1006.8553978849019
2023-01-11T05:26:54.666Z,1006.9143828857163
2023-01-11T05:31:50.933Z,1007.0272702940066
2023-01-11T05:36:48.163Z,1007.0086719804987
2023-01-11T05:41:44.408Z,1007.196180714446
2023-01-11T05:46:41.664Z,1007.2174143431516
2023-01-11T05:51:37.980Z,1007.2757281947402
2023-01-11T05:56:34.222Z,1007.2933550831352
2023-01-11T06:01:30.448Z,1007.3124445235942
2023-01-11T06:06:26.751Z,1007.3029118135178
2023-01-11T06:11:23.003Z,1007.421110817821
2023-01-11T06:16:20.271Z,1007.4469316897553
2023-01-11T06:21:20.483Z,1007.4762299266679
2023-01-11T06:26:17.730Z,1007.433395013405
2023-01-11T06:31:16.964Z,1007.3282529102041
2023-01-11T06:36:15.240Z,1007.4626562831497
2023-01-11T06:41:12.538Z,1007.4860835124599
2023-01-11T06:46:09.785Z,1007.5340274750178
2023-01-11T06:51:06.009Z,1007.4878915709581
2023-01-11T06:56:02.290Z,1007.6509760171389
2023-01-11T07:00:58.631Z,1007.6978244223282
2023-01-11T07:05:55.817Z,1007.7429680289393
2023-01-11T07:10:52.042Z,1007.8196928161124
2023-01-11T07:15:49.356Z,1007.8156986351905
2023-01-11T07:20:45.562Z,1007.7976307324122
2023-01-11T07:25:42.030Z,1007.7706724890933
2023-01-11T07:30:56.001Z,1007.7566694872169
2023-01-11T07:35:41.406Z,1007.8877226997066
2023-01-11T07:40:37.614Z,1007.9626448339874
2023-01-11T07:45:45.369Z,1008.0170946134901
2023-01-11T07:50:36.104Z,1007.9944145735155
2023-01-11T07:55:36.745Z,1008.0800493088173
2023-01-11T08:00:32.633Z,1008.0869224059818
2023-01-11T08:05:29.861Z,1008.1804876444955
2023-01-11T08:10:26.160Z,1008.2637548543306
2023-01-11T08:15:23.799Z,1008.3337295977154
2023-01-11T08:20:20.664Z,1008.3953025639802
2023-01-11T08:25:16.912Z,1008.2086954347485
2023-01-11T08:30:14.156Z,1008.3988964238971
2023-01-11T08:35:10.615Z,1008.5163738901718
2023-01-11T08:40:07.692Z,1008.5157980124205
2023-01-11T08:45:04.934Z,1008.5807892859802
2023-01-11T08:50:01.241Z,1008.5056952862985
2023-01-11T08:54:58.414Z,1008.6591475584577
2023-01-11T08:59:55.343Z,1008.7957348601345
2023-01-11T09:04:56.974Z,1008.8237650060786
2023-01-11T09:10:01.209Z,1008.9270638970537
2023-01-11T09:20:08.961Z,1008.8627540368518
2023-01-11T09:25:13.963Z,1008.7492188445113
2023-01-11T09:30:16.210Z,1008.6883362419971
2023-01-11T09:35:16.871Z,1008.7869003897866
2023-01-11T09:40:18.699Z,1008.752861233609
2023-01-11T09:45:28.296Z,1008.8365607239863
2023-01-11T09:50:28.148Z,1008.9362885379669
2023-01-11T09:55:32.434Z,1008.9929853691355
2023-01-11T10:00:48.239Z,1008.9457682050414
2023-01-11T10:06:00.684Z,1008.9321708379698
2023-01-11T10:18:28.616Z,1008.895268690196
2023-01-11T10:21:56.074Z,1008.8931024104583
2023-01-11T10:27:01.767Z,1009.0525861201537
2023-01-11T10:32:02.192Z,1009.0062881971942
2023-01-11T10:37:17.188Z,1009.0716053370388
2023-01-11T10:42:25.387Z,1008.9675342254382
2023-01-11T10:47:30.663Z,1008.9690036875307
2023-01-11T10:53:01.735Z,1008.9082608135301
2023-01-11T10:58:25.548Z,1008.8730548471623
2023-01-11T11:03:53.361Z,1008.8391277738771
2023-01-11T11:09:06.313Z,1008.8257777424235
2023-01-11T11:14:25.139Z,1008.8426200759889
2023-01-11T11:19:31.814Z,1008.8049589210361
2023-01-11T11:24:41.610Z,1008.880051294757
2023-01-11T11:29:51.277Z,1008.9844169202319
2023-01-11T11:34:53.547Z,1008.9337680115573
2023-01-11T11:39:59.361Z,1009.0031362366426
2023-01-11T11:45:09.920Z,1009.0275143422357
2023-01-11T11:50:42.013Z,1009.0853027552204
2023-01-11T11:55:35.916Z,1009.0674708277987
2023-01-11T12:00:59.605Z,1009.0835200837247
2023-01-11T12:06:05.592Z,1009.0505548368405
2023-01-11T12:11:36.967Z,1009.013555632739
2023-01-11T12:16:55.769Z,1009.0681101929674
2023-01-11T12:22:06.644Z,1009.0597239007095
2023-01-11T12:27:48.190Z,1009.1038104080212
2023-01-11T12:33:21.221Z,1008.9399045433779
2023-01-11T12:38:40.621Z,1009.0127128729425
2023-01-11T12:44:01.332Z,1009.0494374610918
2023-01-11T12:49:27.315Z,1009.0054178230765
2023-01-11T12:54:45.967Z,1008.9419296937913
2023-01-11T13:00:22.725Z,1008.9545709280703
2023-01-11T13:05:59.797Z,1009.0585549268078
2023-01-11T13:11:23.564Z,1009.1550140424541
2023-01-11T13:16:39.265Z,1009.1104262805977
2023-01-11T13:21:50.466Z,1009.214055855701
2023-01-11T13:26:55.892Z,1009.3176879442316
2023-01-11T13:32:07.891Z,1009.3351715198526
2023-01-11T13:42:59.301Z,1009.521654226071
2023-01-11T13:48:12.528Z,1009.5608095333974
2023-01-11T13:53:27.597Z,1009.5660277920507
2023-01-11T13:58:42.718Z,1009.6444756209337
2023-01-11T14:03:58.389Z,1009.6501604408247
2023-01-11T14:09:11.875Z,1009.6234950634836
2023-01-11T14:19:46.858Z,1009.7250656371222
2023-01-11T14:24:56.984Z,1009.7244493718454
2023-01-11T14:30:25.857Z,1009.7277051994755
2023-01-11T14:36:02.341Z,1009.8771594087639
2023-01-11T14:41:18.557Z,1009.8398256686108
2023-01-11T14:46:42.773Z,1009.876202737735
2023-01-11T14:51:58.516Z,1009.8168571360783
2023-01-11T14:57:17.177Z,1009.9059790163643
2023-01-11T15:02:29.414Z,1009.8671816875535
2023-01-11T15:08:00.749Z,1010.0216495052871
2023-01-11T15:13:09.242Z,1010.0557588679404
2023-01-11T15:18:14.985Z,1010.0137075130733
2023-01-11T15:23:18.293Z,1009.9763517449944
2023-01-11T15:28:23.457Z,1009.9765385067736
2023-01-11T15:33:27.778Z,1009.9145404956726
2023-01-11T15:38:31.717Z,1009.9293359979558
2023-01-11T15:43:52.227Z,1009.946498152899
2023-01-11T15:49:03.409Z,1009.8562134446709
2023-01-11T15:54:21.599Z,1009.8995528847826
2023-01-11T15:59:44.322Z,1010.080065407647
2023-01-11T16:04:59.077Z,1010.0167675346462
2023-01-11T16:10:17.227Z,1010.0660657763832
2023-01-11T16:20:26.762Z,1010.1954332830107
2023-01-11T16:25:39.677Z,1010.0627854918587
2023-01-11T16:30:55.076Z,1010.0463014854178
2023-01-11T16:36:08.083Z,1010.1398883212048
2023-01-11T16:41:28.993Z,1010.2187488983413
2023-01-11T16:46:41.752Z,1010.3490216907834
2023-01-11T16:51:39.981Z,1010.4391686816016
2023-01-11T16:56:37.216Z,1010.6117370335938
2023-01-11T17:01:40.478Z,1010.6276116381991
2023-01-11T17:06:46.711Z,1010.6733412866164
2023-01-11T17:11:51.939Z,1010.6921915433433
2023-01-11T17:16:49.377Z,1010.6827699494733
2023-01-11T17:21:50.468Z,1010.7322054403484
2023-01-11T17:26:48.807Z,1010.801497867585
2023-01-11T17:31:51.042Z,1010.7215239711928
2023-01-11T17:36:47.209Z,1010.684762787429
2023-01-11T17:41:44.559Z,1010.5567066435693
2023-01-11T17:46:44.685Z,1010.4982309344481
2023-01-11T17:51:40.955Z,1010.647862072196
2023-01-11T17:56:39.260Z,1010.6136943713689
2023-01-11T18:01:47.471Z,1010.6868092964042
2023-01-11T18:06:44.705Z,1010.8477869653799
2023-01-11T18:11:40.957Z,1010.9432037846229
2023-01-11T18:16:42.307Z,1010.8912407459871
2023-01-11T18:21:48.453Z,1010.8633010605931
2023-01-11T18:27:06.707Z,1010.9259558954627
2023-01-11T18:32:02.960Z,1011.0029652305725
2023-01-11T18:36:59.211Z,1010.9277008190782
2023-01-11T18:41:55.620Z,1010.9117491150278
2023-01-11T18:46:51.734Z,1010.9412123370284
2023-01-11T18:51:49.969Z,1011.0790690359493
2023-01-11T18:56:46.224Z,1011.2082318631633
2023-01-11T19:01:56.120Z,1011.205210417875
2023-01-11T19:06:43.735Z,1011.2786134213738
2023-01-11T19:11:40.016Z,1011.3381579809408
2023-01-11T19:16:36.267Z,1011.282865708607
2023-01-11T19:21:32.496Z,1011.2062031176569
2023-01-11T19:26:28.823Z,1011.241823231584
2023-01-11T19:31:24.118Z,1011.3213013817425
2023-01-11T19:36:19.313Z,1011.3367030844462
2023-01-11T19:41:15.636Z,1011.3651541539846
2023-01-11T19:46:12.108Z,1011.4178328714864
2023-01-11T19:51:10.094Z,1011.3057271785483
2023-01-11T19:56:08.340Z,1011.2054774105142
2023-01-11T20:01:08.599Z,1011.222832534996
2023-01-11T20:06:05.845Z,1011.2465014574269
2023-01-11T20:11:04.084Z,1011.2150208305875
2023-01-11T20:16:03.401Z,1011.2234837741789
2023-01-11T20:20:59.630Z,1011.3564683227856
2023-01-11T20:25:59.846Z,1011.3276627644244
2023-01-11T20:30:56.229Z,1011.3448429294023
2023-01-11T20:35:52.363Z,1011.4724740102554
2023-01-11T20:40:48.604Z,1011.3462350781916
2023-01-11T20:45:50.865Z,1011.2331795936595
2023-01-11T20:50:47.159Z,1011.2865660703097
2023-01-11T20:55:43.448Z,1011.3715269936932
2023-01-11T21:00:40.680Z,1011.5275208791957
2023-01-11T21:05:36.892Z,1011.4277541591314
2023-01-11T21:10:33.180Z,1011.3769075157186
2023-01-11T21:15:29.422Z,1011.3007525478114
2023-01-11T21:20:25.664Z,1011.3976950001129
2023-01-11T21:25:21.955Z,1011.4498138105915
2023-01-11T21:30:18.238Z,1011.3602959071363
2023-01-11T21:35:14.476Z,1011.429435108494
2023-01-11T21:40:12.720Z,1011.468844879109
2023-01-11T21:45:09.991Z,1011.4657883855363
2023-01-11T21:50:07.257Z,1011.4121042611497
2023-01-11T21:55:03.476Z,1011.4953037664185
2023-01-11T21:59:59.826Z,1011.4979593360414
2023-01-11T22:04:55.053Z,1011.5463461563218
2023-01-11T22:10:04.163Z,1011.6021767968715
2023-01-11T22:14:51.539Z,1011.685149940472
2023-01-11T22:19:47.806Z,1011.7674441351675
2023-01-11T22:24:44.052Z,1011.7944738669564
2023-01-11T22:29:40.324Z,1011.7524589021361
2023-01-11T22:34:36.568Z,1011.865090961211
2023-01-11T22:39:32.808Z,1011.7756770868305
2023-01-11T22:44:29.064Z,1011.716928843686
2023-01-11T22:49:24.348Z,1011.7881118831018
2023-01-11T22:54:21.603Z,1011.7373699844039
2023-01-11T22:59:17.892Z,1011.7755739417354
2023-01-11T23:04:14.134Z,1011.7864723061184
2023-01-11T23:09:11.352Z,1011.9541229222849
2023-01-11T23:14:08.664Z,1011.9777055113398
2023-01-11T23:19:05.908Z,1011.8472814101488
2023-01-11T23:24:02.206Z,1011.9016688571556
2023-01-11T23:28:58.404Z,1011.8929711322272
2023-01-11T23:33:55.693Z,1011.853027818117
2023-01-11T23:38:50.965Z,1011.8793019404217
2023-01-11T23:43:47.201Z,1011.7909487799927
2023-01-11T23:48:43.479Z,1011.8111711219007
2023-01-11T23:53:39.813Z,1011.7530576268566
2023-01-11T23:58:34.972Z,1011.8310346467867
